sensor_id;sensor_type;location;lat;lon;timestamp;pressure;altitude;pressure_sealevel;temperature;humidity
72558;BME280;60583;50.094;8.748;2024-03-22T00:00:57;101048.84;;;9.55;81.38
72558;BME280;60583;50.094;8.748;2024-03-22T00:03:41;101059.78;;;9.60;81.48
72558;BME280;60583;50.094;8.748;2024-03-22T00:06:25;101075.19;;;9.95;81.12
72558;BME280;60583;50.094;8.748;2024-03-22T00:09:10;101076.34;;;10.23;80.61
72558;BME280;60583;50.094;8.748;2024-03-22T00:11:54;101059.88;;;10.20;80.71
72558;BME280;60583;50.094;8.748;2024-03-22T00:14:38;101016.19;;;9.84;80.68
72558;BME280;60583;50.094;8.748;2024-03-22T00:17:22;101041.50;;;10.02;81.36
72558;BME280;60583;50.094;8.748;2024-03-22T00:20:06;101047.31;;;10.06;80.57
72558;BME280;60583;50.094;8.748;2024-03-22T00:22:50;101039.13;;;10.07;81.12
72558;BME280;60583;50.094;8.748;2024-03-22T00:25:34;101027.66;;;10.07;80.92
72558;BME280;60583;50.094;8.748;2024-03-22T00:28:18;101044.84;;;10.04;82.92
72558;BME280;60583;50.094;8.748;2024-03-22T00:31:02;101038.75;;;9.96;81.32
72558;BME280;60583;50.094;8.748;2024-03-22T00:33:46;101034.59;;;9.93;81.42
72558;BME280;60583;50.094;8.748;2024-03-22T00:36:30;101021.94;;;9.73;82.17
72558;BME280;60583;50.094;8.748;2024-03-22T00:39:14;101044.06;;;9.73;82.43
72558;BME280;60583;50.094;8.748;2024-03-22T00:41:58;101027.44;;;9.71;84.07
72558;BME280;60583;50.094;8.748;2024-03-22T00:44:42;101036.31;;;9.63;82.85
72558;BME280;60583;50.094;8.748;2024-03-22T00:47:26;101005.94;;;9.19;83.86
72558;BME280;60583;50.094;8.748;2024-03-22T00:50:10;101025.56;;;9.26;84.67
72558;BME280;60583;50.094;8.748;2024-03-22T00:52:54;101021.03;;;9.27;85.67
72558;BME280;60583;50.094;8.748;2024-03-22T00:55:41;100999.72;;;9.35;84.46
72558;BME280;60583;50.094;8.748;2024-03-22T00:58:26;101007.91;;;9.56;83.37
72558;BME280;60583;50.094;8.748;2024-03-22T01:01:10;101015.44;;;9.44;83.86
72558;BME280;60583;50.094;8.748;2024-03-22T01:03:54;101004.91;;;9.28;83.81
72558;BME280;60583;50.094;8.748;2024-03-22T01:06:38;100958.63;;;9.07;84.53
72558;BME280;60583;50.094;8.748;2024-03-22T01:09:23;100960.94;;;9.10;84.22
72558;BME280;60583;50.094;8.748;2024-03-22T01:12:07;100995.44;;;9.26;84.96
72558;BME280;60583;50.094;8.748;2024-03-22T01:14:51;100960.59;;;9.13;83.90
72558;BME280;60583;50.094;8.748;2024-03-22T01:17:35;100983.31;;;9.23;83.79
72558;BME280;60583;50.094;8.748;2024-03-22T01:20:19;100989.19;;;9.19;84.36
72558;BME280;60583;50.094;8.748;2024-03-22T01:23:03;100943.94;;;8.88;84.65
72558;BME280;60583;50.094;8.748;2024-03-22T01:25:48;100970.31;;;8.97;85.08
72558;BME280;60583;50.094;8.748;2024-03-22T01:28:32;100994.84;;;9.16;84.91
72558;BME280;60583;50.094;8.748;2024-03-22T01:31:15;100987.22;;;9.05;84.67
72558;BME280;60583;50.094;8.748;2024-03-22T01:33:59;100968.97;;;9.02;84.53
72558;BME280;60583;50.094;8.748;2024-03-22T01:36:43;100950.78;;;8.82;85.00
72558;BME280;60583;50.094;8.748;2024-03-22T01:39:28;100999.22;;;9.01;85.36
72558;BME280;60583;50.094;8.748;2024-03-22T01:42:11;100983.19;;;8.86;85.65
72558;BME280;60583;50.094;8.748;2024-03-22T01:44:56;100997.69;;;8.67;87.19
72558;BME280;60583;50.094;8.748;2024-03-22T01:47:39;100993.03;;;8.69;87.47
72558;BME280;60583;50.094;8.748;2024-03-22T01:50:23;100959.84;;;8.57;86.80
72558;BME280;60583;50.094;8.748;2024-03-22T01:53:07;100967.50;;;8.52;86.83
72558;BME280;60583;50.094;8.748;2024-03-22T01:55:51;100983.81;;;8.41;88.08
72558;BME280;60583;50.094;8.748;2024-03-22T01:58:35;100977.19;;;8.37;89.21
72558;BME280;60583;50.094;8.748;2024-03-22T02:01:19;100946.97;;;8.22;89.61
72558;BME280;60583;50.094;8.748;2024-03-22T02:04:03;100963.47;;;8.64;88.28
72558;BME280;60583;50.094;8.748;2024-03-22T02:06:47;100964.84;;;8.52;87.63
72558;BME280;60583;50.094;8.748;2024-03-22T02:09:31;100968.50;;;8.51;87.06
72558;BME280;60583;50.094;8.748;2024-03-22T02:12:15;100956.56;;;8.47;87.67
72558;BME280;60583;50.094;8.748;2024-03-22T02:14:59;100968.81;;;8.56;87.85
72558;BME280;60583;50.094;8.748;2024-03-22T02:17:43;100937.63;;;8.26;88.04
72558;BME280;60583;50.094;8.748;2024-03-22T02:20:27;100922.41;;;8.20;88.33
72558;BME280;60583;50.094;8.748;2024-03-22T02:23:11;100932.50;;;8.24;88.31
72558;BME280;60583;50.094;8.748;2024-03-22T02:25:55;100926.25;;;8.01;88.27
72558;BME280;60583;50.094;8.748;2024-03-22T02:28:39;100944.66;;;8.27;88.09
72558;BME280;60583;50.094;8.748;2024-03-22T02:31:23;100940.81;;;8.38;87.73
72558;BME280;60583;50.094;8.748;2024-03-22T02:34:09;100916.94;;;8.29;88.00
72558;BME280;60583;50.094;8.748;2024-03-22T02:36:53;100921.38;;;8.21;87.11
72558;BME280;60583;50.094;8.748;2024-03-22T02:39:37;100893.88;;;8.06;87.05
72558;BME280;60583;50.094;8.748;2024-03-22T02:42:20;100894.56;;;8.00;87.83
72558;BME280;60583;50.094;8.748;2024-03-22T02:45:04;100928.22;;;8.15;88.09
72558;BME280;60583;50.094;8.748;2024-03-22T02:47:50;100923.78;;;7.92;89.62
72558;BME280;60583;50.094;8.748;2024-03-22T02:50:37;100925.78;;;7.90;89.30
72558;BME280;60583;50.094;8.748;2024-03-22T02:53:21;100900.22;;;7.81;89.58
72558;BME280;60583;50.094;8.748;2024-03-22T02:56:05;100857.78;;;7.40;89.14
72558;BME280;60583;50.094;8.748;2024-03-22T02:58:49;100918.84;;;7.72;89.71
72558;BME280;60583;50.094;8.748;2024-03-22T03:01:33;100928.44;;;7.98;88.44
72558;BME280;60583;50.094;8.748;2024-03-22T03:04:17;100913.66;;;7.95;88.71
72558;BME280;60583;50.094;8.748;2024-03-22T03:07:01;100899.88;;;7.84;89.31
72558;BME280;60583;50.094;8.748;2024-03-22T03:09:45;100919.31;;;7.92;88.75
72558;BME280;60583;50.094;8.748;2024-03-22T03:12:29;100913.34;;;7.90;89.09
72558;BME280;60583;50.094;8.748;2024-03-22T03:15:13;100914.47;;;7.96;88.42
72558;BME280;60583;50.094;8.748;2024-03-22T03:17:57;100911.16;;;7.86;89.22
72558;BME280;60583;50.094;8.748;2024-03-22T03:20:41;100907.84;;;7.76;88.78
72558;BME280;60583;50.094;8.748;2024-03-22T03:23:25;100906.38;;;7.81;89.91
72558;BME280;60583;50.094;8.748;2024-03-22T03:26:09;100901.91;;;7.57;91.37
72558;BME280;60583;50.094;8.748;2024-03-22T03:28:53;100886.31;;;7.46;92.04
72558;BME280;60583;50.094;8.748;2024-03-22T03:31:39;100897.09;;;7.69;90.76
72558;BME280;60583;50.094;8.748;2024-03-22T03:34:22;100904.25;;;7.52;92.01
72558;BME280;60583;50.094;8.748;2024-03-22T03:37:06;100876.19;;;7.18;93.76
72558;BME280;60583;50.094;8.748;2024-03-22T03:39:50;100892.94;;;7.18;94.56
72558;BME280;60583;50.094;8.748;2024-03-22T03:42:34;100868.72;;;7.05;94.41
72558;BME280;60583;50.094;8.748;2024-03-22T03:45:18;100864.91;;;7.07;95.41
72558;BME280;60583;50.094;8.748;2024-03-22T03:48:02;100886.16;;;7.24;95.76
72558;BME280;60583;50.094;8.748;2024-03-22T03:50:54;100884.97;;;7.18;96.73
72558;BME280;60583;50.094;8.748;2024-03-22T03:53:38;100890.13;;;7.20;96.40
72558;BME280;60583;50.094;8.748;2024-03-22T03:56:22;100868.56;;;7.06;95.28
72558;BME280;60583;50.094;8.748;2024-03-22T03:59:06;100855.81;;;7.02;95.92
72558;BME280;60583;50.094;8.748;2024-03-22T04:01:50;100874.53;;;7.08;96.12
72558;BME280;60583;50.094;8.748;2024-03-22T04:04:34;100869.88;;;7.11;96.24
72558;BME280;60583;50.094;8.748;2024-03-22T04:07:19;100813.69;;;6.83;95.77
72558;BME280;60583;50.094;8.748;2024-03-22T04:10:03;100881.34;;;7.35;94.62
72558;BME280;60583;50.094;8.748;2024-03-22T04:12:48;100858.47;;;7.34;94.02
72558;BME280;60583;50.094;8.748;2024-03-22T04:15:34;100865.94;;;7.47;93.05
72558;BME280;60583;50.094;8.748;2024-03-22T04:18:18;100860.13;;;7.43;94.62
72558;BME280;60583;50.094;8.748;2024-03-22T04:21:02;100855.81;;;7.42;97.78
72558;BME280;60583;50.094;8.748;2024-03-22T04:23:46;100848.00;;;7.41;98.11
72558;BME280;60583;50.094;8.748;2024-03-22T04:26:31;100854.16;;;7.57;98.62
72558;BME280;60583;50.094;8.748;2024-03-22T04:29:15;100844.03;;;7.53;96.43
72558;BME280;60583;50.094;8.748;2024-03-22T04:31:59;100828.59;;;7.48;95.61
72558;BME280;60583;50.094;8.748;2024-03-22T04:34:43;100848.16;;;7.55;94.94
72558;BME280;60583;50.094;8.748;2024-03-22T04:37:27;100829.25;;;7.58;94.47
72558;BME280;60583;50.094;8.748;2024-03-22T04:40:11;100848.66;;;7.67;95.95
72558;BME280;60583;50.094;8.748;2024-03-22T04:42:55;100855.13;;;7.72;95.94
72558;BME280;60583;50.094;8.748;2024-03-22T04:45:42;100845.31;;;7.73;96.33
72558;BME280;60583;50.094;8.748;2024-03-22T04:48:25;100848.16;;;7.71;94.11
72558;BME280;60583;50.094;8.748;2024-03-22T04:51:09;100860.06;;;7.92;93.59
72558;BME280;60583;50.094;8.748;2024-03-22T04:53:53;100860.03;;;8.00;91.93
72558;BME280;60583;50.094;8.748;2024-03-22T04:56:37;100858.34;;;8.07;92.43
72558;BME280;60583;50.094;8.748;2024-03-22T04:59:21;100859.66;;;8.11;92.14
72558;BME280;60583;50.094;8.748;2024-03-22T05:02:05;100861.66;;;8.17;92.44
72558;BME280;60583;50.094;8.748;2024-03-22T05:04:48;100838.94;;;8.06;92.72
72558;BME280;60583;50.094;8.748;2024-03-22T05:07:33;100866.13;;;8.08;92.16
72558;BME280;60583;50.094;8.748;2024-03-22T05:10:17;100861.53;;;8.02;93.02
72558;BME280;60583;50.094;8.748;2024-03-22T05:13:01;100828.38;;;7.82;92.62
72558;BME280;60583;50.094;8.748;2024-03-22T05:15:46;100855.78;;;7.83;93.71
72558;BME280;60583;50.094;8.748;2024-03-22T05:18:30;100860.06;;;7.92;92.78
72558;BME280;60583;50.094;8.748;2024-03-22T05:21:14;100827.44;;;7.59;94.02
72558;BME280;60583;50.094;8.748;2024-03-22T05:23:58;100857.94;;;7.71;94.80
72558;BME280;60583;50.094;8.748;2024-03-22T05:26:42;100860.75;;;7.78;93.50
72558;BME280;60583;50.094;8.748;2024-03-22T05:29:26;100836.19;;;7.76;93.44
72558;BME280;60583;50.094;8.748;2024-03-22T05:32:10;100833.56;;;7.67;94.11
72558;BME280;60583;50.094;8.748;2024-03-22T05:34:54;100856.25;;;7.86;93.90
72558;BME280;60583;50.094;8.748;2024-03-22T05:37:37;100816.63;;;7.68;92.94
72558;BME280;60583;50.094;8.748;2024-03-22T05:40:21;100864.50;;;8.07;92.49
72558;BME280;60583;50.094;8.748;2024-03-22T05:43:05;100869.59;;;8.17;92.04
72558;BME280;60583;50.094;8.748;2024-03-22T05:45:49;100849.41;;;8.08;91.72
72558;BME280;60583;50.094;8.748;2024-03-22T05:48:33;100853.03;;;8.07;92.06
72558;BME280;60583;50.094;8.748;2024-03-22T05:51:17;100836.47;;;8.05;92.44
72558;BME280;60583;50.094;8.748;2024-03-22T05:54:02;100842.47;;;7.91;93.37
72558;BME280;60583;50.094;8.748;2024-03-22T05:56:46;100837.44;;;8.04;92.47
72558;BME280;60583;50.094;8.748;2024-03-22T05:59:30;100842.41;;;8.07;92.74
72558;BME280;60583;50.094;8.748;2024-03-22T06:02:14;100814.94;;;7.84;93.16
72558;BME280;60583;50.094;8.748;2024-03-22T06:04:59;100839.44;;;8.02;93.20
72558;BME280;60583;50.094;8.748;2024-03-22T06:07:43;100823.84;;;8.07;91.78
72558;BME280;60583;50.094;8.748;2024-03-22T06:10:27;100826.16;;;8.02;92.85
72558;BME280;60583;50.094;8.748;2024-03-22T06:13:11;100810.78;;;7.81;92.86
72558;BME280;60583;50.094;8.748;2024-03-22T06:15:55;100825.72;;;7.90;93.76
72558;BME280;60583;50.094;8.748;2024-03-22T06:18:39;100825.84;;;7.97;93.54
72558;BME280;60583;50.094;8.748;2024-03-22T06:21:23;100790.59;;;8.11;92.58
72558;BME280;60583;50.094;8.748;2024-03-22T06:24:09;100796.28;;;8.47;92.00
72558;BME280;60583;50.094;8.748;2024-03-22T06:26:53;100802.34;;;8.63;91.95
72558;BME280;60583;50.094;8.748;2024-03-22T06:29:37;100794.00;;;8.66;91.00
72558;BME280;60583;50.094;8.748;2024-03-22T06:32:21;100808.97;;;8.90;90.75
72558;BME280;60583;50.094;8.748;2024-03-22T06:35:05;100803.81;;;9.11;89.50
72558;BME280;60583;50.094;8.748;2024-03-22T06:37:50;100780.34;;;9.15;89.11
72558;BME280;60583;50.094;8.748;2024-03-22T06:40:34;100795.88;;;9.26;89.09
72558;BME280;60583;50.094;8.748;2024-03-22T06:43:18;100784.25;;;9.41;87.93
72558;BME280;60583;50.094;8.748;2024-03-22T06:46:02;100802.09;;;9.70;87.74
72558;BME280;60583;50.094;8.748;2024-03-22T06:48:46;100788.41;;;9.88;86.67
72558;BME280;60583;50.094;8.748;2024-03-22T06:51:30;100797.97;;;10.11;85.99
72558;BME280;60583;50.094;8.748;2024-03-22T06:54:14;100785.66;;;10.25;84.89
72558;BME280;60583;50.094;8.748;2024-03-22T06:56:58;100775.16;;;10.38;83.70
72558;BME280;60583;50.094;8.748;2024-03-22T06:59:42;100793.44;;;10.62;82.75
72558;BME280;60583;50.094;8.748;2024-03-22T07:02:26;100801.91;;;10.66;82.79
72558;BME280;60583;50.094;8.748;2024-03-22T07:05:10;100797.84;;;10.70;82.14
72558;BME280;60583;50.094;8.748;2024-03-22T07:07:54;100787.31;;;10.83;81.45
72558;BME280;60583;50.094;8.748;2024-03-22T07:10:41;100782.56;;;10.78;81.23
72558;BME280;60583;50.094;8.748;2024-03-22T07:13:25;100773.72;;;10.78;81.59
72558;BME280;60583;50.094;8.748;2024-03-22T07:16:09;100754.38;;;10.69;80.59
72558;BME280;60583;50.094;8.748;2024-03-22T07:18:53;100783.53;;;10.92;80.71
72558;BME280;60583;50.094;8.748;2024-03-22T07:21:37;100770.81;;;10.94;80.79
72558;BME280;60583;50.094;8.748;2024-03-22T07:24:22;100765.47;;;10.94;79.68
72558;BME280;60583;50.094;8.748;2024-03-22T07:27:07;100775.28;;;10.87;80.64
72558;BME280;60583;50.094;8.748;2024-03-22T07:29:51;100749.84;;;10.91;80.22
72558;BME280;60583;50.094;8.748;2024-03-22T07:32:35;100766.72;;;10.98;80.20
72558;BME280;60583;50.094;8.748;2024-03-22T07:35:21;100769.47;;;11.05;80.36
72558;BME280;60583;50.094;8.748;2024-03-22T07:38:05;100754.19;;;10.92;79.88
72558;BME280;60583;50.094;8.748;2024-03-22T07:40:49;100760.44;;;11.06;80.86
72558;BME280;60583;50.094;8.748;2024-03-22T07:43:33;100762.03;;;11.00;80.59
72558;BME280;60583;50.094;8.748;2024-03-22T07:46:17;100764.56;;;11.08;81.29
72558;BME280;60583;50.094;8.748;2024-03-22T07:49:02;100767.31;;;11.15;80.54
72558;BME280;60583;50.094;8.748;2024-03-22T07:51:47;100754.50;;;11.10;81.11
72558;BME280;60583;50.094;8.748;2024-03-22T07:54:31;100756.81;;;11.13;80.45
72558;BME280;60583;50.094;8.748;2024-03-22T07:57:15;100761.56;;;11.18;81.58
72558;BME280;60583;50.094;8.748;2024-03-22T07:59:59;100755.81;;;11.14;81.69
72558;BME280;60583;50.094;8.748;2024-03-22T08:02:43;100759.72;;;11.18;82.26
72558;BME280;60583;50.094;8.748;2024-03-22T08:05:27;100761.75;;;11.37;81.40
72558;BME280;60583;50.094;8.748;2024-03-22T08:08:11;100744.78;;;11.24;82.04
72558;BME280;60583;50.094;8.748;2024-03-22T08:10:55;100747.00;;;11.20;82.57
72558;BME280;60583;50.094;8.748;2024-03-22T08:13:39;100734.44;;;11.14;81.91
72558;BME280;60583;50.094;8.748;2024-03-22T08:16:23;100743.53;;;11.20;81.72
72558;BME280;60583;50.094;8.748;2024-03-22T08:19:07;100728.75;;;11.24;81.50
72558;BME280;60583;50.094;8.748;2024-03-22T08:21:51;100742.59;;;11.34;82.05
72558;BME280;60583;50.094;8.748;2024-03-22T08:24:35;100748.91;;;11.26;81.96
72558;BME280;60583;50.094;8.748;2024-03-22T08:27:18;100708.25;;;11.24;81.39
72558;BME280;60583;50.094;8.748;2024-03-22T08:30:03;100727.31;;;11.21;82.10
72558;BME280;60583;50.094;8.748;2024-03-22T08:32:47;100704.88;;;11.16;82.50
72558;BME280;60583;50.094;8.748;2024-03-22T08:35:31;100714.72;;;11.15;82.64
72558;BME280;60583;50.094;8.748;2024-03-22T08:38:16;100726.19;;;11.37;82.51
72558;BME280;60583;50.094;8.748;2024-03-22T08:41:00;100696.00;;;11.36;81.05
72558;BME280;60583;50.094;8.748;2024-03-22T08:43:44;100712.63;;;11.38;81.46
72558;BME280;60583;50.094;8.748;2024-03-22T08:46:29;100721.22;;;11.62;80.87
72558;BME280;60583;50.094;8.748;2024-03-22T08:49:13;100728.44;;;11.68;81.90
72558;BME280;60583;50.094;8.748;2024-03-22T08:51:57;100718.81;;;11.73;79.84
72558;BME280;60583;50.094;8.748;2024-03-22T08:54:41;100711.22;;;11.70;79.88
72558;BME280;60583;50.094;8.748;2024-03-22T08:57:25;100705.34;;;11.88;79.58
72558;BME280;60583;50.094;8.748;2024-03-22T09:00:09;100709.94;;;12.07;78.94
72558;BME280;60583;50.094;8.748;2024-03-22T09:02:54;100693.06;;;12.00;79.49
72558;BME280;60583;50.094;8.748;2024-03-22T09:05:38;100699.03;;;12.08;79.52
72558;BME280;60583;50.094;8.748;2024-03-22T09:08:22;100671.69;;;12.06;78.85
72558;BME280;60583;50.094;8.748;2024-03-22T09:11:06;100686.75;;;12.27;78.65
72558;BME280;60583;50.094;8.748;2024-03-22T09:13:53;100688.44;;;12.41;77.92
72558;BME280;60583;50.094;8.748;2024-03-22T09:16:37;100678.41;;;12.63;77.16
72558;BME280;60583;50.094;8.748;2024-03-22T09:19:21;100683.75;;;12.76;77.14
72558;BME280;60583;50.094;8.748;2024-03-22T09:22:06;100671.78;;;12.92;75.75
72558;BME280;60583;50.094;8.748;2024-03-22T09:24:50;100669.34;;;12.84;75.53
72558;BME280;60583;50.094;8.748;2024-03-22T09:27:34;100667.69;;;12.96;75.20
72558;BME280;60583;50.094;8.748;2024-03-22T09:30:18;100624.47;;;12.86;75.04
72558;BME280;60583;50.094;8.748;2024-03-22T09:33:01;100658.63;;;12.97;74.41
72558;BME280;60583;50.094;8.748;2024-03-22T09:35:47;100659.06;;;13.07;74.26
72558;BME280;60583;50.094;8.748;2024-03-22T09:38:31;100648.13;;;13.15;73.51
72558;BME280;60583;50.094;8.748;2024-03-22T09:41:23;100651.63;;;13.28;73.55
72558;BME280;60583;50.094;8.748;2024-03-22T09:44:12;100626.91;;;13.20;72.95
72558;BME280;60583;50.094;8.748;2024-03-22T09:46:57;100645.63;;;13.33;73.63
72558;BME280;60583;50.094;8.748;2024-03-22T09:49:42;100647.47;;;13.39;73.76
72558;BME280;60583;50.094;8.748;2024-03-22T09:52:33;100640.63;;;13.50;72.58
72558;BME280;60583;50.094;8.748;2024-03-22T09:55:20;100632.59;;;13.50;72.47
72558;BME280;60583;50.094;8.748;2024-03-22T09:58:06;100618.63;;;13.41;72.68
72558;BME280;60583;50.094;8.748;2024-03-22T10:00:50;100632.94;;;13.66;71.74
72558;BME280;60583;50.094;8.748;2024-03-22T10:03:33;100611.56;;;13.53;72.81
72558;BME280;60583;50.094;8.748;2024-03-22T10:06:18;100626.34;;;13.69;72.49
72558;BME280;60583;50.094;8.748;2024-03-22T10:09:04;100609.19;;;13.76;71.47
72558;BME280;60583;50.094;8.748;2024-03-22T10:11:49;100609.63;;;13.73;71.17
72558;BME280;60583;50.094;8.748;2024-03-22T10:14:33;100620.16;;;14.06;70.80
72558;BME280;60583;50.094;8.748;2024-03-22T10:17:17;100613.72;;;14.14;69.93
72558;BME280;60583;50.094;8.748;2024-03-22T10:20:01;100605.81;;;14.32;69.82
72558;BME280;60583;50.094;8.748;2024-03-22T10:22:53;100605.38;;;14.35;68.94
72558;BME280;60583;50.094;8.748;2024-03-22T10:25:38;100595.53;;;14.16;68.96
72558;BME280;60583;50.094;8.748;2024-03-22T10:28:22;100589.78;;;14.50;68.48
72558;BME280;60583;50.094;8.748;2024-03-22T10:31:06;100598.47;;;14.70;67.29
72558;BME280;60583;50.094;8.748;2024-03-22T10:33:52;100568.38;;;15.04;65.99
72558;BME280;60583;50.094;8.748;2024-03-22T10:36:37;100578.75;;;16.68;61.89
72558;BME280;60583;50.094;8.748;2024-03-22T10:39:22;100570.91;;;17.01;59.66
72558;BME280;60583;50.094;8.748;2024-03-22T10:42:07;100579.19;;;17.34;58.89
72558;BME280;60583;50.094;8.748;2024-03-22T10:44:51;100562.69;;;17.19;58.34
72558;BME280;60583;50.094;8.748;2024-03-22T10:47:36;100570.84;;;18.65;55.11
72558;BME280;60583;50.094;8.748;2024-03-22T10:50:22;100540.22;;;18.60;54.07
72558;BME280;60583;50.094;8.748;2024-03-22T10:53:17;100549.94;;;17.82;56.12
72558;BME280;60583;50.094;8.748;2024-03-22T10:56:04;100549.19;;;17.31;58.12
72558;BME280;60583;50.094;8.748;2024-03-22T10:58:50;100548.22;;;16.74;59.17
72558;BME280;60583;50.094;8.748;2024-03-22T11:01:36;100534.72;;;16.62;60.42
72558;BME280;60583;50.094;8.748;2024-03-22T11:04:21;100529.47;;;16.55;60.55
72558;BME280;60583;50.094;8.748;2024-03-22T11:07:08;100531.94;;;16.69;59.74
72558;BME280;60583;50.094;8.748;2024-03-22T11:09:52;100529.69;;;16.77;59.83
72558;BME280;60583;50.094;8.748;2024-03-22T11:12:40;100520.19;;;17.49;57.37
72558;BME280;60583;50.094;8.748;2024-03-22T11:15:24;100515.47;;;17.56;56.89
72558;BME280;60583;50.094;8.748;2024-03-22T11:18:07;100518.00;;;17.74;56.89
72558;BME280;60583;50.094;8.748;2024-03-22T11:20:52;100475.66;;;18.25;54.69
72558;BME280;60583;50.094;8.748;2024-03-22T11:23:36;100506.75;;;18.27;54.99
72558;BME280;60583;50.094;8.748;2024-03-22T11:26:20;100503.25;;;18.60;54.18
72558;BME280;60583;50.094;8.748;2024-03-22T11:29:04;100488.50;;;19.33;53.17
72558;BME280;60583;50.094;8.748;2024-03-22T11:31:48;100464.34;;;19.74;51.15
72558;BME280;60583;50.094;8.748;2024-03-22T11:34:35;100469.78;;;19.48;51.64
72558;BME280;60583;50.094;8.748;2024-03-22T11:37:19;100466.41;;;18.76;53.59
72558;BME280;60583;50.094;8.748;2024-03-22T11:40:03;100458.56;;;18.03;55.89
72558;BME280;60583;50.094;8.748;2024-03-22T11:42:51;100476.13;;;17.89;56.63
72558;BME280;60583;50.094;8.748;2024-03-22T11:45:35;100460.25;;;17.59;58.12
72558;BME280;60583;50.094;8.748;2024-03-22T11:48:21;100442.75;;;17.61;58.10
72558;BME280;60583;50.094;8.748;2024-03-22T11:51:06;100416.97;;;17.09;59.56
72558;BME280;60583;50.094;8.748;2024-03-22T11:53:51;100453.22;;;17.18;59.54
72558;BME280;60583;50.094;8.748;2024-03-22T11:56:35;100454.75;;;17.42;59.65
72558;BME280;60583;50.094;8.748;2024-03-22T11:59:19;100436.78;;;17.59;58.51
72558;BME280;60583;50.094;8.748;2024-03-22T12:02:05;100437.63;;;17.48;59.42
72558;BME280;60583;50.094;8.748;2024-03-22T12:04:49;100411.88;;;17.12;59.33
72558;BME280;60583;50.094;8.748;2024-03-22T12:07:34;100410.47;;;17.21;59.95
72558;BME280;60583;50.094;8.748;2024-03-22T12:10:18;100427.97;;;17.07;60.26
72558;BME280;60583;50.094;8.748;2024-03-22T12:13:02;100395.25;;;17.15;60.09
72558;BME280;60583;50.094;8.748;2024-03-22T12:15:46;100414.31;;;17.26;60.37
72558;BME280;60583;50.094;8.748;2024-03-22T12:18:30;100422.31;;;17.65;59.53
72558;BME280;60583;50.094;8.748;2024-03-22T12:21:14;100398.47;;;18.07;57.73
72558;BME280;60583;50.094;8.748;2024-03-22T12:23:58;100397.38;;;18.25;57.21
72558;BME280;60583;50.094;8.748;2024-03-22T12:26:42;100388.47;;;18.08;57.45
72558;BME280;60583;50.094;8.748;2024-03-22T12:29:26;100396.56;;;18.24;57.49
72558;BME280;60583;50.094;8.748;2024-03-22T12:32:10;100373.66;;;18.10;56.87
72558;BME280;60583;50.094;8.748;2024-03-22T12:34:54;100392.47;;;18.05;58.32
72558;BME280;60583;50.094;8.748;2024-03-22T12:37:38;100391.44;;;17.90;58.94
72558;BME280;60583;50.094;8.748;2024-03-22T12:40:22;100380.31;;;17.86;58.33
72558;BME280;60583;50.094;8.748;2024-03-22T12:43:05;100380.88;;;17.55;58.84
72558;BME280;60583;50.094;8.748;2024-03-22T12:45:50;100384.97;;;17.57;58.99
72558;BME280;60583;50.094;8.748;2024-03-22T12:48:34;100365.59;;;17.60;59.25
72558;BME280;60583;50.094;8.748;2024-03-22T12:51:18;100371.25;;;17.59;58.48
72558;BME280;60583;50.094;8.748;2024-03-22T12:54:03;100340.56;;;17.48;58.44
72558;BME280;60583;50.094;8.748;2024-03-22T12:56:46;100349.00;;;17.68;58.97
72558;BME280;60583;50.094;8.748;2024-03-22T12:59:31;100357.59;;;17.65;58.61
72558;BME280;60583;50.094;8.748;2024-03-22T13:02:15;100336.81;;;17.49;59.08
72558;BME280;60583;50.094;8.748;2024-03-22T13:04:59;100353.19;;;17.59;58.89
72558;BME280;60583;50.094;8.748;2024-03-22T13:07:43;100353.00;;;17.49;58.91
72558;BME280;60583;50.094;8.748;2024-03-22T13:10:27;100338.25;;;17.40;59.53
72558;BME280;60583;50.094;8.748;2024-03-22T13:13:11;100343.13;;;17.71;58.25
72558;BME280;60583;50.094;8.748;2024-03-22T13:15:58;100325.38;;;17.92;57.50
72558;BME280;60583;50.094;8.748;2024-03-22T13:18:42;100338.13;;;17.80;57.49
72558;BME280;60583;50.094;8.748;2024-03-22T13:21:25;100334.84;;;17.95;57.06
72558;BME280;60583;50.094;8.748;2024-03-22T13:24:11;100292.63;;;17.67;57.07
72558;BME280;60583;50.094;8.748;2024-03-22T13:26:54;100305.66;;;17.75;56.96
72558;BME280;60583;50.094;8.748;2024-03-22T13:29:39;100294.50;;;17.66;57.17
72558;BME280;60583;50.094;8.748;2024-03-22T13:32:24;100317.47;;;17.69;57.80
72558;BME280;60583;50.094;8.748;2024-03-22T13:35:07;100316.72;;;17.73;57.74
72558;BME280;60583;50.094;8.748;2024-03-22T13:37:52;100309.88;;;17.66;58.96
72558;BME280;60583;50.094;8.748;2024-03-22T13:40:36;100295.25;;;17.62;58.48
72558;BME280;60583;50.094;8.748;2024-03-22T13:43:20;100302.72;;;17.43;59.07
72558;BME280;60583;50.094;8.748;2024-03-22T13:46:04;100261.47;;;17.26;59.47
72558;BME280;60583;50.094;8.748;2024-03-22T13:48:51;100286.97;;;17.35;60.30
72558;BME280;60583;50.094;8.748;2024-03-22T13:51:35;100266.78;;;17.21;59.88
72558;BME280;60583;50.094;8.748;2024-03-22T13:54:20;100292.59;;;17.34;59.43
72558;BME280;60583;50.094;8.748;2024-03-22T13:57:04;100284.66;;;17.27;59.30
72558;BME280;60583;50.094;8.748;2024-03-22T13:59:48;100282.06;;;17.15;59.79
72558;BME280;60583;50.094;8.748;2024-03-22T14:02:32;100284.00;;;17.20;59.80
72558;BME280;60583;50.094;8.748;2024-03-22T14:05:16;100287.09;;;17.12;59.79
72558;BME280;60583;50.094;8.748;2024-03-22T14:08:00;100278.94;;;17.07;59.46
72558;BME280;60583;50.094;8.748;2024-03-22T14:10:43;100273.22;;;17.03;59.89
72558;BME280;60583;50.094;8.748;2024-03-22T14:13:27;100272.66;;;17.01;60.43
72558;BME280;60583;50.094;8.748;2024-03-22T14:16:11;100234.81;;;16.80;60.54
72558;BME280;60583;50.094;8.748;2024-03-22T14:18:55;100263.00;;;16.89;61.12
72558;BME280;60583;50.094;8.748;2024-03-22T14:21:39;100258.19;;;16.91;61.24
72558;BME280;60583;50.094;8.748;2024-03-22T14:24:23;100253.63;;;16.91;60.97